sensor_id;sensor_type;location;lat;lon;timestamp;P1;durP1;ratioP1;P2;durP2;ratioP2
17784;SDS011;9016;53.582;10.062;2023-06-10T00:00:03;0.23;;;0.23;;
17784;SDS011;9016;53.582;10.062;2023-06-10T00:02:33;0.30;;;0.30;;
17784;SDS011;9016;53.582;10.062;2023-06-10T00:05:03;0.30;;;0.30;;
17784;SDS011;9016;53.582;10.062;2023-06-10T00:07:32;0.30;;;0.30;;
17784;SDS011;9016;53.582;10.062;2023-06-10T00:10:04;0.23;;;0.23;;
17784;SDS011;9016;53.582;10.062;2023-06-10T00:12:33;0.30;;;0.30;;
17784;SDS011;9016;53.582;10.062;2023-06-10T00:15:05;0.30;;;0.30;;
17784;SDS011;9016;53.582;10.062;2023-06-10T00:17:34;0.20;;;0.20;;
17784;SDS011;9016;53.582;10.062;2023-06-10T00:20:08;0.30;;;0.30;;
17784;SDS011;9016;53.582;10.062;2023-06-10T00:22:39;0.30;;;0.30;;
17784;SDS011;9016;53.582;10.062;2023-06-10T00:25:09;0.30;;;0.30;;
17784;SDS011;9016;53.582;10.062;2023-06-10T00:27:38;0.20;;;0.20;;
17784;SDS011;9016;53.582;10.062;2023-06-10T00:30:06;0.20;;;0.20;;
17784;SDS011;9016;53.582;10.062;2023-06-10T00:32:35;0.20;;;0.20;;
17784;SDS011;9016;53.582;10.062;2023-06-10T00:35:04;0.30;;;0.30;;
17784;SDS011;9016;53.582;10.062;2023-06-10T00:37:35;0.30;;;0.30;;
17784;SDS011;9016;53.582;10.062;2023-06-10T00:40:04;0.30;;;0.30;;
17784;SDS011;9016;53.582;10.062;2023-06-10T00:42:35;0.30;;;0.30;;
17784;SDS011;9016;53.582;10.062;2023-06-10T00:45:03;0.20;;;0.20;;
17784;SDS011;9016;53.582;10.062;2023-06-10T00:47:33;0.30;;;0.30;;
17784;SDS011;9016;53.582;10.062;2023-06-10T00:50:03;0.30;;;0.30;;
17784;SDS011;9016;53.582;10.062;2023-06-10T00:52:31;0.30;;;0.30;;
17784;SDS011;9016;53.582;10.062;2023-06-10T00:55:02;0.20;;;0.20;;
17784;SDS011;9016;53.582;10.062;2023-06-10T00:57:31;0.23;;;0.23;;
17784;SDS011;9016;53.582;10.062;2023-06-10T00:59:59;0.30;;;0.30;;
17784;SDS011;9016;53.582;10.062;2023-06-10T01:02:27;0.30;;;0.30;;
17784;SDS011;9016;53.582;10.062;2023-06-10T01:04:55;0.30;;;0.30;;
17784;SDS011;9016;53.582;10.062;2023-06-10T01:07:24;0.30;;;0.30;;
17784;SDS011;9016;53.582;10.062;2023-06-10T01:09:56;0.30;;;0.30;;
17784;SDS011;9016;53.582;10.062;2023-06-10T01:12:33;0.30;;;0.30;;
17784;SDS011;9016;53.582;10.062;2023-06-10T01:15:07;0.30;;;0.30;;
17784;SDS011;9016;53.582;10.062;2023-06-10T01:17:37;0.30;;;0.30;;
17784;SDS011;9016;53.582;10.062;2023-06-10T01:20:22;0.20;;;0.20;;
17784;SDS011;9016;53.582;10.062;2023-06-10T01:22:51;0.30;;;0.30;;
17784;SDS011;9016;53.582;10.062;2023-06-10T01:25:20;0.30;;;0.30;;
17784;SDS011;9016;53.582;10.062;2023-06-10T01:27:54;0.30;;;0.30;;
17784;SDS011;9016;53.582;10.062;2023-06-10T01:30:30;0.30;;;0.30;;
17784;SDS011;9016;53.582;10.062;2023-06-10T01:33:03;0.30;;;0.30;;
17784;SDS011;9016;53.582;10.062;2023-06-10T01:35:37;0.30;;;0.30;;
17784;SDS011;9016;53.582;10.062;2023-06-10T01:38:07;0.30;;;0.30;;
17784;SDS011;9016;53.582;10.062;2023-06-10T01:40:35;0.30;;;0.30;;
17784;SDS011;9016;53.582;10.062;2023-06-10T01:43:05;0.30;;;0.30;;
17784;SDS011;9016;53.582;10.062;2023-06-10T01:45:33;0.27;;;0.27;;
17784;SDS011;9016;53.582;10.062;2023-06-10T01:48:01;0.30;;;0.30;;
17784;SDS011;9016;53.582;10.062;2023-06-10T01:50:30;0.27;;;0.27;;
17784;SDS011;9016;53.582;10.062;2023-06-10T01:52:59;0.20;;;0.20;;
17784;SDS011;9016;53.582;10.062;2023-06-10T01:55:29;0.30;;;0.30;;
17784;SDS011;9016;53.582;10.062;2023-06-10T01:57:57;0.20;;;0.20;;
17784;SDS011;9016;53.582;10.062;2023-06-10T02:00:25;0.30;;;0.30;;
17784;SDS011;9016;53.582;10.062;2023-06-10T02:02:53;0.30;;;0.30;;
17784;SDS011;9016;53.582;10.062;2023-06-10T02:05:21;0.30;;;0.30;;
17784;SDS011;9016;53.582;10.062;2023-06-10T02:07:49;0.20;;;0.20;;
17784;SDS011;9016;53.582;10.062;2023-06-10T02:10:17;0.30;;;0.30;;
17784;SDS011;9016;53.582;10.062;2023-06-10T02:12:47;0.30;;;0.30;;
17784;SDS011;9016;53.582;10.062;2023-06-10T02:15:15;0.30;;;0.30;;
17784;SDS011;9016;53.582;10.062;2023-06-10T02:17:43;0.30;;;0.30;;
17784;SDS011;9016;53.582;10.062;2023-06-10T02:20:12;0.30;;;0.30;;
17784;SDS011;9016;53.582;10.062;2023-06-10T02:22:41;0.30;;;0.30;;
17784;SDS011;9016;53.582;10.062;2023-06-10T02:25:09;0.30;;;0.30;;
17784;SDS011;9016;53.582;10.062;2023-06-10T02:27:37;0.30;;;0.30;;
17784;SDS011;9016;53.582;10.062;2023-06-10T02:30:07;0.20;;;0.20;;
17784;SDS011;9016;53.582;10.062;2023-06-10T02:32:37;0.30;;;0.30;;
17784;SDS011;9016;53.582;10.062;2023-06-10T02:35:05;0.30;;;0.30;;
17784;SDS011;9016;53.582;10.062;2023-06-10T02:37:34;0.20;;;0.20;;
17784;SDS011;9016;53.582;10.062;2023-06-10T02:40:02;0.20;;;0.20;;
17784;SDS011;9016;53.582;10.062;2023-06-10T02:42:32;0.20;;;0.20;;
17784;SDS011;9016;53.582;10.062;2023-06-10T02:45:00;0.30;;;0.30;;
17784;SDS011;9016;53.582;10.062;2023-06-10T02:47:29;0.30;;;0.30;;
17784;SDS011;9016;53.582;10.062;2023-06-10T02:49:57;0.30;;;0.30;;
17784;SDS011;9016;53.582;10.062;2023-06-10T02:52:25;0.20;;;0.20;;
17784;SDS011;9016;53.582;10.062;2023-06-10T02:54:53;0.30;;;0.30;;
17784;SDS011;9016;53.582;10.062;2023-06-10T02:57:21;0.30;;;0.30;;
17784;SDS011;9016;53.582;10.062;2023-06-10T02:59:49;0.30;;;0.30;;
17784;SDS011;9016;53.582;10.062;2023-06-10T03:02:19;0.30;;;0.30;;
17784;SDS011;9016;53.582;10.062;2023-06-10T03:04:49;0.30;;;0.30;;
17784;SDS011;9016;53.582;10.062;2023-06-10T03:07:17;0.20;;;0.20;;
17784;SDS011;9016;53.582;10.062;2023-06-10T03:09:47;0.30;;;0.30;;
17784;SDS011;9016;53.582;10.062;2023-06-10T03:12:15;0.30;;;0.30;;
17784;SDS011;9016;53.582;10.062;2023-06-10T03:14:43;0.20;;;0.20;;
17784;SDS011;9016;53.582;10.062;2023-06-10T03:17:11;0.23;;;0.23;;
17784;SDS011;9016;53.582;10.062;2023-06-10T03:19:39;0.20;;;0.20;;
17784;SDS011;9016;53.582;10.062;2023-06-10T03:22:10;0.23;;;0.23;;
17784;SDS011;9016;53.582;10.062;2023-06-10T03:24:39;0.30;;;0.30;;
17784;SDS011;9016;53.582;10.062;2023-06-10T03:27:07;0.30;;;0.30;;
17784;SDS011;9016;53.582;10.062;2023-06-10T03:29:37;0.30;;;0.30;;
17784;SDS011;9016;53.582;10.062;2023-06-10T03:32:05;0.20;;;0.20;;
17784;SDS011;9016;53.582;10.062;2023-06-10T03:34:34;0.30;;;0.30;;
17784;SDS011;9016;53.582;10.062;2023-06-10T03:37:02;0.30;;;0.30;;
17784;SDS011;9016;53.582;10.062;2023-06-10T03:39:32;0.30;;;0.30;;
17784;SDS011;9016;53.582;10.062;2023-06-10T03:42:00;0.30;;;0.30;;
17784;SDS011;9016;53.582;10.062;2023-06-10T03:44:28;0.30;;;0.30;;
17784;SDS011;9016;53.582;10.062;2023-06-10T03:46:56;0.30;;;0.30;;
17784;SDS011;9016;53.582;10.062;2023-06-10T03:49:26;0.30;;;0.30;;
17784;SDS011;9016;53.582;10.062;2023-06-10T03:51:55;0.20;;;0.20;;
17784;SDS011;9016;53.582;10.062;2023-06-10T03:54:24;0.30;;;0.30;;
17784;SDS011;9016;53.582;10.062;2023-06-10T03:56:53;0.30;;;0.30;;
17784;SDS011;9016;53.582;10.062;2023-06-10T03:59:21;0.20;;;0.20;;
17784;SDS011;9016;53.582;10.062;2023-06-10T04:01:49;0.20;;;0.20;;
17784;SDS011;9016;53.582;10.062;2023-06-10T04:04:17;0.30;;;0.30;;
17784;SDS011;9016;53.582;10.062;2023-06-10T04:06:45;0.30;;;0.30;;
17784;SDS011;9016;53.582;10.062;2023-06-10T04:09:14;0.20;;;0.20;;
17784;SDS011;9016;53.582;10.062;2023-06-10T04:11:42;0.30;;;0.30;;
17784;SDS011;9016;53.582;10.062;2023-06-10T04:14:11;0.30;;;0.30;;
17784;SDS011;9016;53.582;10.062;2023-06-10T04:16:40;0.30;;;0.30;;
17784;SDS011;9016;53.582;10.062;2023-06-10T04:19:09;0.30;;;0.30;;
17784;SDS011;9016;53.582;10.062;2023-06-10T04:21:37;0.30;;;0.30;;
17784;SDS011;9016;53.582;10.062;2023-06-10T04:24:05;0.30;;;0.30;;
17784;SDS011;9016;53.582;10.062;2023-06-10T04:26:34;0.20;;;0.20;;
17784;SDS011;9016;53.582;10.062;2023-06-10T04:29:03;0.20;;;0.20;;
17784;SDS011;9016;53.582;10.062;2023-06-10T04:31:33;0.30;;;0.30;;
17784;SDS011;9016;53.582;10.062;2023-06-10T04:34:01;0.30;;;0.30;;
17784;SDS011;9016;53.582;10.062;2023-06-10T04:36:29;0.27;;;0.27;;
17784;SDS011;9016;53.582;10.062;2023-06-10T04:38:57;0.30;;;0.30;;
17784;SDS011;9016;53.582;10.062;2023-06-10T04:41:25;0.30;;;0.30;;
17784;SDS011;9016;53.582;10.062;2023-06-10T04:43:53;0.20;;;0.20;;
17784;SDS011;9016;53.582;10.062;2023-06-10T04:46:21;0.30;;;0.30;;
17784;SDS011;9016;53.582;10.062;2023-06-10T04:48:51;0.30;;;0.30;;
17784;SDS011;9016;53.582;10.062;2023-06-10T04:51:20;0.30;;;0.30;;
17784;SDS011;9016;53.582;10.062;2023-06-10T04:53:48;0.37;;;0.37;;
17784;SDS011;9016;53.582;10.062;2023-06-10T04:56:17;0.30;;;0.30;;
17784;SDS011;9016;53.582;10.062;2023-06-10T04:58:44;0.30;;;0.30;;
17784;SDS011;9016;53.582;10.062;2023-06-10T05:01:15;0.30;;;0.30;;
17784;SDS011;9016;53.582;10.062;2023-06-10T05:03:44;0.30;;;0.30;;
17784;SDS011;9016;53.582;10.062;2023-06-10T05:06:14;0.30;;;0.30;;
17784;SDS011;9016;53.582;10.062;2023-06-10T05:08:42;0.30;;;0.30;;
17784;SDS011;9016;53.582;10.062;2023-06-10T05:11:10;0.20;;;0.20;;
17784;SDS011;9016;53.582;10.062;2023-06-10T05:13:39;0.30;;;0.30;;
17784;SDS011;9016;53.582;10.062;2023-06-10T05:16:09;0.30;;;0.30;;
17784;SDS011;9016;53.582;10.062;2023-06-10T05:18:37;0.30;;;0.30;;
17784;SDS011;9016;53.582;10.062;2023-06-10T05:21:05;0.30;;;0.30;;
17784;SDS011;9016;53.582;10.062;2023-06-10T05:23:35;0.30;;;0.30;;
17784;SDS011;9016;53.582;10.062;2023-06-10T05:26:03;0.20;;;0.20;;
17784;SDS011;9016;53.582;10.062;2023-06-10T05:28:31;0.30;;;0.30;;
17784;SDS011;9016;53.582;10.062;2023-06-10T05:30:59;0.30;;;0.30;;
17784;SDS011;9016;53.582;10.062;2023-06-10T05:33:27;0.30;;;0.30;;
17784;SDS011;9016;53.582;10.062;2023-06-10T05:35:56;0.30;;;0.30;;
17784;SDS011;9016;53.582;10.062;2023-06-10T05:38:24;0.30;;;0.30;;
17784;SDS011;9016;53.582;10.062;2023-06-10T05:40:53;0.20;;;0.20;;
17784;SDS011;9016;53.582;10.062;2023-06-10T05:43:23;0.30;;;0.30;;
17784;SDS011;9016;53.582;10.062;2023-06-10T05:45:51;0.30;;;0.30;;
17784;SDS011;9016;53.582;10.062;2023-06-10T05:48:20;0.30;;;0.30;;
17784;SDS011;9016;53.582;10.062;2023-06-10T05:50:48;0.30;;;0.30;;
17784;SDS011;9016;53.582;10.062;2023-06-10T05:53:16;0.20;;;0.20;;
17784;SDS011;9016;53.582;10.062;2023-06-10T05:55:45;0.30;;;0.30;;
17784;SDS011;9016;53.582;10.062;2023-06-10T05:58:15;0.30;;;0.30;;
17784;SDS011;9016;53.582;10.062;2023-06-10T06:00:43;0.30;;;0.30;;
17784;SDS011;9016;53.582;10.062;2023-06-10T06:03:11;0.30;;;0.30;;
17784;SDS011;9016;53.582;10.062;2023-06-10T06:05:43;0.30;;;0.30;;
17784;SDS011;9016;53.582;10.062;2023-06-10T06:08:12;0.30;;;0.30;;
17784;SDS011;9016;53.582;10.062;2023-06-10T06:10:44;0.30;;;0.30;;
17784;SDS011;9016;53.582;10.062;2023-06-10T06:13:15;0.30;;;0.30;;
17784;SDS011;9016;53.582;10.062;2023-06-10T06:15:43;0.30;;;0.30;;
17784;SDS011;9016;53.582;10.062;2023-06-10T06:18:11;0.30;;;0.30;;
17784;SDS011;9016;53.582;10.062;2023-06-10T06:20:40;0.30;;;0.30;;
17784;SDS011;9016;53.582;10.062;2023-06-10T06:23:08;0.40;;;0.40;;
17784;SDS011;9016;53.582;10.062;2023-06-10T06:25:40;0.60;;;0.60;;
17784;SDS011;9016;53.582;10.062;2023-06-10T06:28:09;0.60;;;0.60;;
17784;SDS011;9016;53.582;10.062;2023-06-10T06:30:38;0.60;;;0.60;;
17784;SDS011;9016;53.582;10.062;2023-06-10T06:33:07;0.60;;;0.60;;
17784;SDS011;9016;53.582;10.062;2023-06-10T06:35:35;0.60;;;0.60;;
17784;SDS011;9016;53.582;10.062;2023-06-10T06:38:04;0.60;;;0.60;;
17784;SDS011;9016;53.582;10.062;2023-06-10T06:40:32;0.60;;;0.60;;
17784;SDS011;9016;53.582;10.062;2023-06-10T06:43:00;0.70;;;0.70;;
17784;SDS011;9016;53.582;10.062;2023-06-10T06:45:28;0.75;;;0.75;;
17784;SDS011;9016;53.582;10.062;2023-06-10T06:47:58;0.63;;;0.63;;
17784;SDS011;9016;53.582;10.062;2023-06-10T06:50:26;0.60;;;0.60;;
17784;SDS011;9016;53.582;10.062;2023-06-10T06:52:54;0.70;;;0.70;;
17784;SDS011;9016;53.582;10.062;2023-06-10T06:55:22;0.70;;;0.70;;
17784;SDS011;9016;53.582;10.062;2023-06-10T06:57:50;0.65;;;0.65;;
17784;SDS011;9016;53.582;10.062;2023-06-10T07:00:19;0.70;;;0.70;;
17784;SDS011;9016;53.582;10.062;2023-06-10T07:02:47;0.80;;;0.80;;
17784;SDS011;9016;53.582;10.062;2023-06-10T07:05:17;0.60;;;0.60;;
17784;SDS011;9016;53.582;10.062;2023-06-10T07:07:45;0.70;;;0.70;;
17784;SDS011;9016;53.582;10.062;2023-06-10T07:10:13;0.70;;;0.70;;
17784;SDS011;9016;53.582;10.062;2023-06-10T07:12:42;0.70;;;0.70;;
17784;SDS011;9016;53.582;10.062;2023-06-10T07:15:10;0.70;;;0.70;;
17784;SDS011;9016;53.582;10.062;2023-06-10T07:17:38;0.70;;;0.70;;
17784;SDS011;9016;53.582;10.062;2023-06-10T07:20:07;0.70;;;0.70;;
17784;SDS011;9016;53.582;10.062;2023-06-10T07:22:36;0.70;;;0.70;;
17784;SDS011;9016;53.582;10.062;2023-06-10T07:25:07;0.80;;;0.80;;
17784;SDS011;9016;53.582;10.062;2023-06-10T07:27:36;0.70;;;0.70;;
17784;SDS011;9016;53.582;10.062;2023-06-10T07:30:05;0.80;;;0.80;;
17784;SDS011;9016;53.582;10.062;2023-06-10T07:32:35;0.77;;;0.77;;
17784;SDS011;9016;53.582;10.062;2023-06-10T07:35:03;0.90;;;0.90;;
17784;SDS011;9016;53.582;10.062;2023-06-10T07:37:33;0.80;;;0.80;;
17784;SDS011;9016;53.582;10.062;2023-06-10T07:40:03;0.80;;;0.80;;
17784;SDS011;9016;53.582;10.062;2023-06-10T07:42:34;0.80;;;0.80;;
17784;SDS011;9016;53.582;10.062;2023-06-10T07:45:03;0.80;;;0.80;;
17784;SDS011;9016;53.582;10.062;2023-06-10T07:47:33;0.80;;;0.80;;
17784;SDS011;9016;53.582;10.062;2023-06-10T07:50:02;0.90;;;0.90;;
17784;SDS011;9016;53.582;10.062;2023-06-10T07:52:30;0.80;;;0.80;;
17784;SDS011;9016;53.582;10.062;2023-06-10T07:54:58;0.70;;;0.70;;
17784;SDS011;9016;53.582;10.062;2023-06-10T07:57:27;0.80;;;0.80;;
17784;SDS011;9016;53.582;10.062;2023-06-10T07:59:58;0.90;;;0.90;;
17784;SDS011;9016;53.582;10.062;2023-06-10T08:02:26;0.80;;;0.80;;
17784;SDS011;9016;53.582;10.062;2023-06-10T08:04:54;0.90;;;0.90;;
17784;SDS011;9016;53.582;10.062;2023-06-10T08:07:22;1.00;;;1.00;;
17784;SDS011;9016;53.582;10.062;2023-06-10T08:09:52;0.80;;;0.80;;
17784;SDS011;9016;53.582;10.062;2023-06-10T08:12:19;0.80;;;0.80;;
17784;SDS011;9016;53.582;10.062;2023-06-10T08:14:49;0.88;;;0.88;;
17784;SDS011;9016;53.582;10.062;2023-06-10T08:17:17;0.85;;;0.85;;
17784;SDS011;9016;53.582;10.062;2023-06-10T08:19:45;0.90;;;0.90;;
17784;SDS011;9016;53.582;10.062;2023-06-10T08:22:13;0.80;;;0.80;;
17784;SDS011;9016;53.582;10.062;2023-06-10T08:24:41;0.85;;;0.85;;
17784;SDS011;9016;53.582;10.062;2023-06-10T08:27:12;0.95;;;0.95;;
17784;SDS011;9016;53.582;10.062;2023-06-10T08:29:40;0.80;;;0.80;;
17784;SDS011;9016;53.582;10.062;2023-06-10T08:32:10;0.90;;;0.90;;
17784;SDS011;9016;53.582;10.062;2023-06-10T08:34:38;0.82;;;0.82;;
17784;SDS011;9016;53.582;10.062;2023-06-10T08:37:07;0.80;;;0.80;;
17784;SDS011;9016;53.582;10.062;2023-06-10T08:39:35;0.90;;;0.90;;
17784;SDS011;9016;53.582;10.062;2023-06-10T08:42:05;0.82;;;0.82;;
17784;SDS011;9016;53.582;10.062;2023-06-10T08:44:39;0.80;;;0.80;;
17784;SDS011;9016;53.582;10.062;2023-06-10T08:47:10;0.80;;;0.80;;
17784;SDS011;9016;53.582;10.062;2023-06-10T08:49:43;0.85;;;0.85;;
17784;SDS011;9016;53.582;10.062;2023-06-10T08:52:14;0.80;;;0.80;;
17784;SDS011;9016;53.582;10.062;2023-06-10T08:54:44;0.95;;;0.95;;
17784;SDS011;9016;53.582;10.062;2023-06-10T08:57:16;0.90;;;0.90;;
17784;SDS011;9016;53.582;10.062;2023-06-10T08:59:47;0.80;;;0.80;;
17784;SDS011;9016;53.582;10.062;2023-06-10T09:02:16;0.90;;;0.90;;
17784;SDS011;9016;53.582;10.062;2023-06-10T09:04:47;0.80;;;0.80;;
17784;SDS011;9016;53.582;10.062;2023-06-10T09:07:16;0.90;;;0.90;;
17784;SDS011;9016;53.582;10.062;2023-06-10T09:09:45;0.93;;;0.93;;
17784;SDS011;9016;53.582;10.062;2023-06-10T09:12:13;0.90;;;0.90;;
17784;SDS011;9016;53.582;10.062;2023-06-10T09:14:42;0.80;;;0.80;;
17784;SDS011;9016;53.582;10.062;2023-06-10T09:17:10;0.90;;;0.90;;
17784;SDS011;9016;53.582;10.062;2023-06-10T09:19:40;0.90;;;0.90;;
17784;SDS011;9016;53.582;10.062;2023-06-10T09:22:09;0.90;;;0.90;;
17784;SDS011;9016;53.582;10.062;2023-06-10T09:24:37;1.00;;;1.00;;
17784;SDS011;9016;53.582;10.062;2023-06-10T09:27:07;0.90;;;0.90;;
17784;SDS011;9016;53.582;10.062;2023-06-10T09:29:46;0.80;;;0.80;;
17784;SDS011;9016;53.582;10.062;2023-06-10T09:32:15;0.80;;;0.80;;
17784;SDS011;9016;53.582;10.062;2023-06-10T09:34:46;0.80;;;0.80;;
17784;SDS011;9016;53.582;10.062;2023-06-10T09:37:19;0.90;;;0.90;;
17784;SDS011;9016;53.582;10.062;2023-06-10T09:40:01;0.90;;;0.90;;
17784;SDS011;9016;53.582;10.062;2023-06-10T09:42:34;0.80;;;0.80;;
17784;SDS011;9016;53.582;10.062;2023-06-10T09:45:04;0.70;;;0.70;;
17784;SDS011;9016;53.582;10.062;2023-06-10T09:47:34;0.60;;;0.60;;
17784;SDS011;9016;53.582;10.062;2023-06-10T09:50:04;0.50;;;0.50;;
17784;SDS011;9016;53.582;10.062;2023-06-10T09:52:36;0.50;;;0.50;;
17784;SDS011;9016;53.582;10.062;2023-06-10T09:55:07;0.50;;;0.50;;
17784;SDS011;9016;53.582;10.062;2023-06-10T09:57:36;0.50;;;0.50;;
17784;SDS011;9016;53.582;10.062;2023-06-10T10:00:05;0.50;;;0.50;;
17784;SDS011;9016;53.582;10.062;2023-06-10T10:02:37;0.50;;;0.50;;
17784;SDS011;9016;53.582;10.062;2023-06-10T10:05:13;0.50;;;0.50;;
17784;SDS011;9016;53.582;10.062;2023-06-10T10:07:43;0.50;;;0.50;;
17784;SDS011;9016;53.582;10.062;2023-06-10T10:10:12;0.47;;;0.47;;
17784;SDS011;9016;53.582;10.062;2023-06-10T10:12:41;0.40;;;0.40;;
17784;SDS011;9016;53.582;10.062;2023-06-10T10:15:11;0.43;;;0.43;;
17784;SDS011;9016;53.582;10.062;2023-06-10T10:17:40;0.40;;;0.40;;
17784;SDS011;9016;53.582;10.062;2023-06-10T10:20:22;0.40;;;0.40;;
17784;SDS011;9016;53.582;10.062;2023-06-10T10:22:55;0.43;;;0.43;;
17784;SDS011;9016;53.582;10.062;2023-06-10T10:25:27;0.40;;;0.40;;
17784;SDS011;9016;53.582;10.062;2023-06-10T10:28:01;0.50;;;0.50;;
17784;SDS011;9016;53.582;10.062;2023-06-10T10:30:34;0.50;;;0.50;;
17784;SDS011;9016;53.582;10.062;2023-06-10T10:33:09;0.50;;;0.50;;
17784;SDS011;9016;53.582;10.062;2023-06-10T10:35:41;0.45;;;0.45;;
17784;SDS011;9016;53.582;10.062;2023-06-10T10:38:12;0.45;;;0.45;;
17784;SDS011;9016;53.582;10.062;2023-06-10T10:40:40;0.40;;;0.40;;
17784;SDS011;9016;53.582;10.062;2023-06-10T10:43:11;0.40;;;0.40;;
17784;SDS011;9016;53.582;10.062;2023-06-10T10:45:40;0.40;;;0.40;;
17784;SDS011;9016;53.582;10.062;2023-06-10T10:48:08;0.30;;;0.30;;
17784;SDS011;9016;53.582;10.062;2023-06-10T10:50:38;0.40;;;0.40;;
17784;SDS011;9016;53.582;10.062;2023-06-10T10:53:09;0.40;;;0.40;;
17784;SDS011;9016;53.582;10.062;2023-06-10T10:55:37;0.40;;;0.40;;
17784;SDS011;9016;53.582;10.062;2023-06-10T10:58:07;0.50;;;0.50;;
17784;SDS011;9016;53.582;10.062;2023-06-10T11:00:41;0.40;;;0.40;;
17784;SDS011;9016;53.582;10.062;2023-06-10T11:03:13;0.40;;;0.40;;
17784;SDS011;9016;53.582;10.062;2023-06-10T11:05:43;0.35;;;0.35;;
17784;SDS011;9016;53.582;10.062;2023-06-10T11:08:45;0.40;;;0.40;;
17784;SDS011;9016;53.582;10.062;2023-06-10T11:11:17;0.47;;;0.47;;
17784;SDS011;9016;53.582;10.062;2023-06-10T11:14:05;0.47;;;0.47;;
17784;SDS011;9016;53.582;10.062;2023-06-10T11:16:39;0.40;;;0.40;;
17784;SDS011;9016;53.582;10.062;2023-06-10T11:19:09;0.40;;;0.40;;
17784;SDS011;9016;53.582;10.062;2023-06-10T11:21:58;0.38;;;0.38;;
17784;SDS011;9016;53.582;10.062;2023-06-10T11:24:28;0.50;;;0.50;;
17784;SDS011;9016;53.582;10.062;2023-06-10T11:27:16;0.43;;;0.43;;
17784;SDS011;9016;53.582;10.062;2023-06-10T11:32:50;0.40;;;0.40;;
17784;SDS011;9016;53.582;10.062;2023-06-10T11:35:20;0.40;;;0.40;;
17784;SDS011;9016;53.582;10.062;2023-06-10T11:37:53;0.40;;;0.40;;
17784;SDS011;9016;53.582;10.062;2023-06-10T11:40:21;0.40;;;0.40;;
17784;SDS011;9016;53.582;10.062;2023-06-10T11:42:50;0.40;;;0.40;;
17784;SDS011;9016;53.582;10.062;2023-06-10T11:45:18;0.50;;;0.50;;
17784;SDS011;9016;53.582;10.062;2023-06-10T11:47:58;0.40;;;0.40;;
17784;SDS011;9016;53.582;10.062;2023-06-10T11:50:30;0.40;;;0.40;;
17784;SDS011;9016;53.582;10.062;2023-06-10T11:53:00;0.40;;;0.40;;
17784;SDS011;9016;53.582;10.062;2023-06-10T11:55:40;0.30;;;0.30;;
17784;SDS011;9016;53.582;10.062;2023-06-10T11:58:13;0.40;;;0.40;;
17784;SDS011;9016;53.582;10.062;2023-06-10T12:00:45;0.40;;;0.40;;
17784;SDS011;9016;53.582;10.062;2023-06-10T12:03:14;0.38;;;0.38;;
17784;SDS011;9016;53.582;10.062;2023-06-10T12:05:54;0.40;;;0.40;;
17784;SDS011;9016;53.582;10.062;2023-06-10T12:08:24;0.40;;;0.40;;
17784;SDS011;9016;53.582;10.062;2023-06-10T12:10:53;0.40;;;0.40;;
17784;SDS011;9016;53.582;10.062;2023-06-10T12:13:21;0.40;;;0.40;;
17784;SDS011;9016;53.582;10.062;2023-06-10T12:15:50;0.40;;;0.40;;
17784;SDS011;9016;53.582;10.062;2023-06-10T12:18:18;0.40;;;0.40;;
17784;SDS011;9016;53.582;10.062;2023-06-10T12:20:47;0.40;;;0.40;;
17784;SDS011;9016;53.582;10.062;2023-06-10T12:23:17;0.40;;;0.40;;
17784;SDS011;9016;53.582;10.062;2023-06-10T12:25:51;0.40;;;0.40;;
17784;SDS011;9016;53.582;10.062;2023-06-10T12:28:20;0.30;;;0.30;;
17784;SDS011;9016;53.582;10.062;2023-06-10T12:30:51;0.38;;;0.38;;
17784;SDS011;9016;53.582;10.062;2023-06-10T12:33:34;0.40;;;0.40;;
17784;SDS011;9016;53.582;10.062;2023-06-10T12:36:02;0.40;;;0.40;;
17784;SDS011;9016;53.582;10.062;2023-06-10T12:38:30;0.30;;;0.30;;
17784;SDS011;9016;53.582;10.062;2023-06-10T12:41:02;0.30;;;0.30;;
17784;SDS011;9016;53.582;10.062;2023-06-10T12:43:31;0.30;;;0.30;;
17784;SDS011;9016;53.582;10.062;2023-06-10T12:46:08;0.40;;;0.40;;
17784;SDS011;9016;53.582;10.062;2023-06-10T12:48:48;0.38;;;0.38;;
17784;SDS011;9016;53.582;10.062;2023-06-10T12:51:17;0.40;;;0.40;;
17784;SDS011;9016;53.582;10.062;2023-06-10T12:53:45;0.40;;;0.40;;
17784;SDS011;9016;53.582;10.062;2023-06-10T12:56:15;0.40;;;0.40;;
17784;SDS011;9016;53.582;10.062;2023-06-10T12:58:43;0.40;;;0.40;;
17784;SDS011;9016;53.582;10.062;2023-06-10T13:01:12;0.40;;;0.40;;
17784;SDS011;9016;53.582;10.062;2023-06-10T13:03:40;0.40;;;0.40;;
17784;SDS011;9016;53.582;10.062;2023-06-10T13:06:09;0.40;;;0.40;;
17784;SDS011;9016;53.582;10.062;2023-06-10T13:08:38;0.40;;;0.40;;
17784;SDS011;9016;53.582;10.062;2023-06-10T13:11:06;0.43;;;0.43;;
17784;SDS011;9016;53.582;10.062;2023-06-10T13:13:37;0.40;;;0.40;;
17784;SDS011;9016;53.582;10.062;2023-06-10T13:16:05;0.40;;;0.40;;
17784;SDS011;9016;53.582;10.062;2023-06-10T13:18:35;0.40;;;0.40;;
17784;SDS011;9016;53.582;10.062;2023-06-10T13:21:05;0.40;;;0.40;;
17784;SDS011;9016;53.582;10.062;2023-06-10T13:23:34;0.40;;;0.40;;
17784;SDS011;9016;53.582;10.062;2023-06-10T13:26:02;0.30;;;0.30;;
17784;SDS011;9016;53.582;10.062;2023-06-10T13:28:31;0.40;;;0.40;;
17784;SDS011;9016;53.582;10.062;2023-06-10T13:31:02;0.40;;;0.40;;
17784;SDS011;9016;53.582;10.062;2023-06-10T13:33:30;0.38;;;0.38;;
17784;SDS011;9016;53.582;10.062;2023-06-10T13:35:59;0.40;;;0.40;;
17784;SDS011;9016;53.582;10.062;2023-06-10T13:38:27;0.40;;;0.40;;
17784;SDS011;9016;53.582;10.062;2023-06-10T13:40:55;0.40;;;0.40;;
17784;SDS011;9016;53.582;10.062;2023-06-10T13:43:23;0.40;;;0.40;;
17784;SDS011;9016;53.582;10.062;2023-06-10T13:45:51;0.30;;;0.30;;
17784;SDS011;9016;53.582;10.062;2023-06-10T13:48:20;0.30;;;0.30;;
17784;SDS011;9016;53.582;10.062;2023-06-10T13:50:49;0.40;;;0.40;;
17784;SDS011;9016;53.582;10.062;2023-06-10T13:53:16;0.40;;;0.40;;
17784;SDS011;9016;53.582;10.062;2023-06-10T13:55:45;0.40;;;0.40;;
17784;SDS011;9016;53.582;10.062;2023-06-10T13:58:13;0.40;;;0.40;;
17784;SDS011;9016;53.582;10.062;2023-06-10T14:00:41;0.40;;;0.40;;
17784;SDS011;9016;53.582;10.062;2023-06-10T14:03:09;0.38;;;0.38;;
17784;SDS011;9016;53.582;10.062;2023-06-10T14:05:38;0.30;;;0.30;;
17784;SDS011;9016;53.582;10.062;2023-06-10T14:08:06;0.30;;;0.30;;
17784;SDS011;9016;53.582;10.062;2023-06-10T14:10:34;0.30;;;0.30;;
17784;SDS011;9016;53.582;10.062;2023-06-10T14:13:02;0.40;;;0.40;;
17784;SDS011;9016;53.582;10.062;2023-06-10T14:15:31;0.30;;;0.30;;
17784;SDS011;9016;53.582;10.062;2023-06-10T14:17:59;0.40;;;0.40;;
17784;SDS011;9016;53.582;10.062;2023-06-10T14:20:27;0.30;;;0.30;;
17784;SDS011;9016;53.582;10.062;2023-06-10T14:22:59;0.40;;;0.40;;
17784;SDS011;9016;53.582;10.062;2023-06-10T14:25:27;0.38;;;0.38;;
17784;SDS011;9016;53.582;10.062;2023-06-10T14:27:55;0.30;;;0.30;;
17784;SDS011;9016;53.582;10.062;2023-06-10T14:30:23;0.30;;;0.30;;
17784;SDS011;9016;53.582;10.062;2023-06-10T14:32:51;0.30;;;0.30;;
17784;SDS011;9016;53.582;10.062;2023-06-10T14:35:19;0.30;;;0.30;;
17784;SDS011;9016;53.582;10.062;2023-06-10T14:37:48;0.40;;;0.40;;
17784;SDS011;9016;53.582;10.062;2023-06-10T14:40:17;0.30;;;0.30;;
17784;SDS011;9016;53.582;10.062;2023-06-10T14:42:47;0.30;;;0.30;;
17784;SDS011;9016;53.582;10.062;2023-06-10T14:45:15;0.30;;;0.30;;
17784;SDS011;9016;53.582;10.062;2023-06-10T14:47:43;0.40;;;0.40;;
17784;SDS011;9016;53.582;10.062;2023-06-10T14:50:13;0.30;;;0.30;;
17784;SDS011;9016;53.582;10.062;2023-06-10T14:52:41;0.32;;;0.32;;
17784;SDS011;9016;53.582;10.062;2023-06-10T14:55:09;0.30;;;0.30;;
17784;SDS011;9016;53.582;10.062;2023-06-10T14:57:39;0.32;;;0.32;;
17784;SDS011;9016;53.582;10.062;2023-06-10T15:00:07;0.40;;;0.40;;
17784;SDS011;9016;53.582;10.062;2023-06-10T15:02:36;0.40;;;0.40;;
17784;SDS011;9016;53.582;10.062;2023-06-10T15:05:04;0.40;;;0.40;;